logo
Rechercher aéroport 
image banner adimage banner adimage banner ad
image banner ad

EINN - Shannon

Situé à Limerick, Ireland

ICAO - EINN, IATA - SNN

Données fournies par Airmate  

Information générale

Coordonnées: N52°42'7" W8°55'29"
Élévation : 46 feet MSL.
Variation magnétique : -4° East
Voir autres Aéroports à County Clare

Données opérationnelles

Special qualification required
Heure actuelle UTC:
Heure actuelle locale:
Météo
METAR: EINN 171730Z 31009KT 9999 FEW030 BKN045 15/11 Q1014 NOSIG
TAF: TAF EINN 171700Z 1718/1818 31010KT 9999 FEW025 BKN045 BECMG 1718/1720 35008KT
Voir NOTAMs / SUP AIP / TFR affectant cet aéroport [VIEW]
Fréquences de communication: [VIEW]

Pistes:

Identifiant RWYQFULongueur (ft)Largeur (ft)SurfaceLDA (ft)
0652°10495148ASPH10495
24232°10495148ASPH10036

Coordonnées de l'aéroport

Adresse: Limerick Ireland

Autres services d'aviation

Écoles de pilotage

Phoenix Flying Club

Phoenix Flying Club
dgd@leahysol.ie+35361315700
+353872596270

Vue satellite de EINN